Time;durP1;ratioP1;P1;durP2;ratioP2;P2;SDS_P1;SDS_P2;PMS_P1;PMS_P2;Temp;Humidity;BMP_temperature;BMP_pressure;BME280_temperature;BME280_humidity;BME280_pressure;Samples;Min_cycle;Max_cycle;Signal;HPM_P1;HPM_P2
2021/03/17 07:08:45;;;;;;;3.08;1.27;;;;;;;;;;10633208;28;20027;-86
2021/03/17 07:14:08;;;;;;;2.78;1.00;;;;;;;;;;10642934;27;20028;-85
2021/03/17 07:19:47;;;;;;;2.35;1.00;;;;;;;;;;10634746;28;20047;-86
2021/03/17 08:10:37;;;;;;;2.47;0.90;;;;;;;;;;10608329;27;20034;-84
2021/03/17 08:15:38;;;;;;;2.40;1.05;;;;;;;;;;10605183;28;20066;-82
2021/03/17 08:20:47;;;;;;;3.25;0.80;;;;;;;;;;10617230;28;20049;-83
2021/03/17 08:25:50;;;;;;;3.63;0.80;;;;;;;;;;10618313;28;20027;-83
2021/03/17 08:30:52;;;;;;;2.28;0.70;;;;;;;;;;10605942;28;20047;-83
2021/03/17 08:36:01;;;;;;;2.15;0.50;;;;;;;;;;10588683;28;20123;-86
2021/03/17 08:41:02;;;;;;;1.77;0.63;;;;;;;;;;10594104;28;20046;-83
2021/03/17 08:46:11;;;;;;;2.13;0.88;;;;;;;;;;10593945;28;20024;-83
2021/03/17 08:51:12;;;;;;;2.05;0.60;;;;;;;;;;10597042;28;20087;-85
2021/03/17 08:56:32;;;;;;;2.30;0.70;;;;;;;;;;10611234;28;20019;-84
2021/03/17 09:01:33;;;;;;;2.78;0.90;;;;;;;;;;10615840;28;20031;-84
2021/03/17 09:06:36;;;;;;;2.88;0.70;;;;;;;;;;10609729;28;20039;-83
2021/03/17 09:11:37;;;;;;;1.73;0.85;;;;;;;;;;10593239;28;20055;-83
2021/03/17 09:16:58;;;;;;;1.77;0.88;;;;;;;;;;10609091;28;20023;-83
2021/03/17 09:22:27;;;;;;;3.22;1.17;;;;;;;;;;10612796;28;20008;-86
2021/03/17 09:28:23;;;;;;;4.03;1.00;;;;;;;;;;10604399;28;20114;-89
2021/03/17 09:39:22;;;;;;;4.32;1.38;;;;;;;;;;10630754;28;20035;-89
2021/03/17 10:40:53;;;;;;;5.55;1.25;;;;;;;;;;10599963;28;20035;-86
2021/03/17 11:01:23;;;;;;;2.72;0.93;;;;;;;;;;10468685;28;20053;-84
2021/03/17 11:06:25;;;;;;;4.85;0.90;;;;;;;;;;10470134;28;20066;-84
2021/03/17 11:11:26;;;;;;;2.92;0.80;;;;;;;;;;10457654;28;20036;-83
2021/03/17 11:16:27;;;;;;;2.40;1.02;;;;;;;;;;10457618;28;20037;-83
2021/03/17 11:21:32;;;;;;;3.72;1.15;;;;;;;;;;10452640;28;20037;-83
2021/03/17 11:26:37;;;;;;;3.88;1.20;;;;;;;;;;10455837;28;20063;-83
2021/03/17 11:31:38;;;;;;;4.82;0.90;;;;;;;;;;10468085;28;20072;-85
2021/03/17 11:36:39;;;;;;;3.08;1.08;;;;;;;;;;10450911;28;20044;-81
2021/03/17 11:41:41;;;;;;;2.58;0.98;;;;;;;;;;10468578;28;20076;-82
2021/03/17 11:46:42;;;;;;;2.33;0.90;;;;;;;;;;10459013;28;20380;-82
2021/03/17 11:51:44;;;;;;;2.88;1.20;;;;;;;;;;10476878;28;20029;-85
2021/03/17 11:56:45;;;;;;;2.13;0.90;;;;;;;;;;10491016;28;20071;-84
2021/03/17 12:01:46;;;;;;;2.25;1.17;;;;;;;;;;10460387;28;20029;-86
2021/03/17 12:06:55;;;;;;;5.35;1.20;;;;;;;;;;10456759;28;20040;-85
2021/03/17 12:11:57;;;;;;;2.67;1.00;;;;;;;;;;10454216;28;20487;-84
2021/03/17 12:23:20;;;;;;;7.50;1.40;;;;;;;;;;10471929;28;20017;-84
2021/03/17 12:29:03;;;;;;;1.88;0.90;;;;;;;;;;10441118;28;20491;-85
2021/03/17 12:34:11;;;;;;;2.83;1.38;;;;;;;;;;10468922;28;20033;-87
2021/03/17 12:39:12;;;;;;;5.93;4.72;;;;;;;;;;10451576;28;20462;-86
2021/03/17 12:44:13;;;;;;;2.80;1.23;;;;;;;;;;10449404;28;20433;-84
2021/03/17 12:49:15;;;;;;;2.78;1.10;;;;;;;;;;10451021;28;20029;-84
2021/03/17 12:54:16;;;;;;;2.60;1.00;;;;;;;;;;10451184;28;20127;-85
2021/03/17 12:59:17;;;;;;;5.90;1.40;;;;;;;;;;10451909;28;20072;-85
2021/03/17 13:04:18;;;;;;;3.28;1.30;;;;;;;;;;10452588;28;20102;-85
2021/03/17 13:09:19;;;;;;;6.20;1.50;;;;;;;;;;10455719;28;20059;-84
2021/03/17 13:14:20;;;;;;;2.08;1.23;;;;;;;;;;10452735;28;20033;-85
2021/03/17 13:19:38;;;;;;;3.90;1.20;;;;;;;;;;10453456;28;20033;-85
2021/03/17 13:24:39;;;;;;;3.65;1.02;;;;;;;;;;10454044;28;20512;-84
2021/03/17 13:29:40;;;;;;;2.55;1.10;;;;;;;;;;10473910;28;20043;-85
2021/03/17 13:34:45;;;;;;;2.17;0.90;;;;;;;;;;10455341;28;20037;-84
2021/03/17 13:39:46;;;;;;;2.58;1.10;;;;;;;;;;10448735;28;20375;-84
2021/03/17 13:44:47;;;;;;;2.35;0.80;;;;;;;;;;10473921;28;20530;-84
2021/03/17 13:49:48;;;;;;;3.47;0.90;;;;;;;;;;10450054;28;20070;-84
2021/03/17 13:54:49;;;;;;;3.10;1.20;;;;;;;;;;10450040;28;20033;-85
2021/03/17 13:59:50;;;;;;;2.60;0.80;;;;;;;;;;10449635;28;20061;-84
2021/03/17 14:04:51;;;;;;;3.38;0.90;;;;;;;;;;10447368;28;20518;-83
2021/03/17 14:27:01;;;;;;;3.95;1.15;;;;;;;;;;10465802;28;20017;-85
2021/03/17 14:32:11;;;;;;;1.73;0.70;;;;;;;;;;10468477;28;20104;-84
2021/03/17 14:37:12;;;;;;;4.40;0.90;;;;;;;;;;10479824;28;20040;-84
2021/03/17 14:42:14;;;;;;;1.25;0.70;;;;;;;;;;10489712;28;20101;-85
2021/03/17 14:47:15;;;;;;;2.10;0.70;;;;;;;;;;10489700;28;20055;-83
2021/03/17 14:52:16;;;;;;;2.70;0.90;;;;;;;;;;10475512;28;20033;-86
2021/03/17 14:57:19;;;;;;;3.92;1.00;;;;;;;;;;10464329;28;20033;-86
2021/03/17 15:02:20;;;;;;;2.05;0.80;;;;;;;;;;10466229;28;20053;-85
2021/03/17 15:07:22;;;;;;;2.00;0.70;;;;;;;;;;10457772;28;20051;-84
2021/03/17 15:12:43;;;;;;;3.85;1.00;;;;;;;;;;10453858;28;20044;-85
2021/03/17 15:17:50;;;;;;;2.40;0.80;;;;;;;;;;10457863;28;20076;-85
2021/03/17 15:22:55;;;;;;;2.58;1.00;;;;;;;;;;10468254;28;20043;-85
2021/03/17 15:28:02;;;;;;;3.33;1.00;;;;;;;;;;10494086;28;20117;-86
2021/03/17 15:33:04;;;;;;;3.55;1.13;;;;;;;;;;10458216;28;20036;-86
2021/03/17 15:38:06;;;;;;;3.53;1.05;;;;;;;;;;10459720;28;20370;-86
2021/03/17 15:43:08;;;;;;;3.50;1.10;;;;;;;;;;10455074;28;20047;-85
2021/03/17 15:48:09;;;;;;;3.42;1.10;;;;;;;;;;10470204;28;20033;-83
2021/03/17 15:53:15;;;;;;;1.48;0.88;;;;;;;;;;10454723;28;20396;-86
2021/03/17 15:58:16;;;;;;;2.33;0.88;;;;;;;;;;10471269;28;20065;-87
2021/03/17 16:09:31;;;;;;;2.70;1.00;;;;;;;;;;10482977;28;20029;-88
2021/03/17 16:14:49;;;;;;;;;;;;;;;;;;10311744;28;20117;-87
2021/03/17 16:31:34;;;;;;;;;;;;;;;;;;10301330;28;20038;-87
2021/03/17 16:36:57;;;;;;;4.28;1.08;;;;;;;;;;10281532;28;19916;-87
2021/03/17 16:42:30;;;;;;;2.65;1.10;;;;;;;;;;10301537;28;20044;-87
2021/03/17 16:48:03;;;;;;;3.45;1.15;;;;;;;;;;10565797;22;20054;-87
2021/03/17 17:27:46;;;;;;;2.13;1.10;;;;;;;;;;10603227;28;20497;-87
